sensor_id;sensor_type;location;lat;lon;timestamp;P1;durP1;ratioP1;P2;durP2;ratioP2
3036;SDS011;1528;52.550;13.408;2022-09-09T00:02:28;13.00;;;12.30;;
3036;SDS011;1528;52.550;13.408;2022-09-09T00:05:17;13.67;;;12.97;;
3036;SDS011;1528;52.550;13.408;2022-09-09T00:08:11;11.77;;;11.17;;
3036;SDS011;1528;52.550;13.408;2022-09-09T00:11:03;12.63;;;11.93;;
3036;SDS011;1528;52.550;13.408;2022-09-09T00:13:51;12.83;;;11.90;;
3036;SDS011;1528;52.550;13.408;2022-09-09T00:16:39;11.50;;;10.90;;
3036;SDS011;1528;52.550;13.408;2022-09-09T00:19:28;12.67;;;12.07;;
3036;SDS011;1528;52.550;13.408;2022-09-09T00:22:22;12.33;;;11.70;;
3036;SDS011;1528;52.550;13.408;2022-09-09T00:25:10;11.00;;;10.40;;
3036;SDS011;1528;52.550;13.408;2022-09-09T00:28:00;11.60;;;10.97;;
3036;SDS011;1528;52.550;13.408;2022-09-09T00:30:46;12.10;;;11.40;;
3036;SDS011;1528;52.550;13.408;2022-09-09T00:33:32;10.77;;;10.27;;
3036;SDS011;1528;52.550;13.408;2022-09-09T00:36:20;14.57;;;13.87;;
3036;SDS011;1528;52.550;13.408;2022-09-09T00:39:13;14.00;;;13.30;;
3036;SDS011;1528;52.550;13.408;2022-09-09T00:42:08;14.13;;;13.40;;
3036;SDS011;1528;52.550;13.408;2022-09-09T00:45:01;13.50;;;12.80;;
3036;SDS011;1528;52.550;13.408;2022-09-09T00:47:55;13.03;;;12.20;;
3036;SDS011;1528;52.550;13.408;2022-09-09T00:50:44;11.30;;;10.60;;
3036;SDS011;1528;52.550;13.408;2022-09-09T00:53:37;12.23;;;11.53;;
3036;SDS011;1528;52.550;13.408;2022-09-09T00:56:28;13.57;;;12.87;;
3036;SDS011;1528;52.550;13.408;2022-09-09T00:59:27;13.13;;;12.43;;
3036;SDS011;1528;52.550;13.408;2022-09-09T01:02:26;13.00;;;12.30;;
3036;SDS011;1528;52.550;13.408;2022-09-09T01:05:16;10.80;;;10.17;;
3036;SDS011;1528;52.550;13.408;2022-09-09T01:08:11;15.30;;;14.50;;
3036;SDS011;1528;52.550;13.408;2022-09-09T01:11:05;13.97;;;13.17;;
3036;SDS011;1528;52.550;13.408;2022-09-09T01:13:58;12.40;;;11.80;;
3036;SDS011;1528;52.550;13.408;2022-09-09T01:16:48;13.13;;;12.33;;
3036;SDS011;1528;52.550;13.408;2022-09-09T01:19:37;15.00;;;14.20;;
3036;SDS011;1528;52.550;13.408;2022-09-09T01:22:33;13.80;;;13.10;;
3036;SDS011;1528;52.550;13.408;2022-09-09T01:28:55;13.60;;;12.80;;
3036;SDS011;1528;52.550;13.408;2022-09-09T01:31:41;14.37;;;13.47;;
3036;SDS011;1528;52.550;13.408;2022-09-09T01:34:36;11.90;;;11.20;;
3036;SDS011;1528;52.550;13.408;2022-09-09T01:37:24;13.77;;;12.97;;
3036;SDS011;1528;52.550;13.408;2022-09-09T01:40:10;14.17;;;13.37;;
3036;SDS011;1528;52.550;13.408;2022-09-09T01:42:57;13.03;;;12.23;;
3036;SDS011;1528;52.550;13.408;2022-09-09T01:45:43;16.83;;;15.80;;
3036;SDS011;1528;52.550;13.408;2022-09-09T01:48:31;15.13;;;14.23;;
3036;SDS011;1528;52.550;13.408;2022-09-09T01:51:17;14.93;;;13.80;;
3036;SDS011;1528;52.550;13.408;2022-09-09T01:54:03;12.77;;;12.10;;
3036;SDS011;1528;52.550;13.408;2022-09-09T01:56:52;14.47;;;13.63;;
3036;SDS011;1528;52.550;13.408;2022-09-09T01:59:56;13.90;;;13.10;;
3036;SDS011;1528;52.550;13.408;2022-09-09T02:02:52;11.93;;;11.13;;
3036;SDS011;1528;52.550;13.408;2022-09-09T02:05:44;12.23;;;11.43;;
3036;SDS011;1528;52.550;13.408;2022-09-09T02:08:39;12.20;;;11.50;;
3036;SDS011;1528;52.550;13.408;2022-09-09T02:11:28;12.97;;;12.07;;
3036;SDS011;1528;52.550;13.408;2022-09-09T02:14:14;12.50;;;11.80;;
3036;SDS011;1528;52.550;13.408;2022-09-09T02:17:07;14.20;;;13.40;;
3036;SDS011;1528;52.550;13.408;2022-09-09T02:19:56;11.97;;;11.27;;
3036;SDS011;1528;52.550;13.408;2022-09-09T02:22:49;12.37;;;11.67;;
3036;SDS011;1528;52.550;13.408;2022-09-09T02:25:35;13.13;;;12.03;;
3036;SDS011;1528;52.550;13.408;2022-09-09T02:28:22;13.53;;;12.73;;
3036;SDS011;1528;52.550;13.408;2022-09-09T02:31:09;12.30;;;11.60;;
3036;SDS011;1528;52.550;13.408;2022-09-09T02:33:58;13.23;;;12.43;;
3036;SDS011;1528;52.550;13.408;2022-09-09T02:36:46;12.60;;;11.80;;
3036;SDS011;1528;52.550;13.408;2022-09-09T02:39:33;13.00;;;12.30;;
3036;SDS011;1528;52.550;13.408;2022-09-09T02:42:18;12.80;;;12.00;;
3036;SDS011;1528;52.550;13.408;2022-09-09T02:45:04;11.93;;;11.33;;
3036;SDS011;1528;52.550;13.408;2022-09-09T02:47:53;11.50;;;10.80;;
3036;SDS011;1528;52.550;13.408;2022-09-09T02:50:51;11.93;;;11.33;;
3036;SDS011;1528;52.550;13.408;2022-09-09T02:53:43;12.30;;;11.60;;
3036;SDS011;1528;52.550;13.408;2022-09-09T02:56:35;15.43;;;14.63;;
3036;SDS011;1528;52.550;13.408;2022-09-09T02:59:25;16.37;;;15.57;;
3036;SDS011;1528;52.550;13.408;2022-09-09T03:02:11;15.00;;;14.20;;
3036;SDS011;1528;52.550;13.408;2022-09-09T03:04:57;15.40;;;14.50;;
3036;SDS011;1528;52.550;13.408;2022-09-09T03:07:44;15.57;;;14.77;;
3036;SDS011;1528;52.550;13.408;2022-09-09T03:10:29;17.40;;;16.00;;
3036;SDS011;1528;52.550;13.408;2022-09-09T03:13:15;14.07;;;13.37;;
3036;SDS011;1528;52.550;13.408;2022-09-09T03:16:02;16.20;;;15.40;;
3036;SDS011;1528;52.550;13.408;2022-09-09T03:18:49;16.30;;;15.40;;
3036;SDS011;1528;52.550;13.408;2022-09-09T03:21:34;15.80;;;14.90;;
3036;SDS011;1528;52.550;13.408;2022-09-09T03:24:21;13.27;;;12.57;;
3036;SDS011;1528;52.550;13.408;2022-09-09T03:27:06;14.93;;;14.23;;
3036;SDS011;1528;52.550;13.408;2022-09-09T03:29:52;15.37;;;14.60;;
3036;SDS011;1528;52.550;13.408;2022-09-09T03:32:38;13.43;;;12.63;;
3036;SDS011;1528;52.550;13.408;2022-09-09T03:35:23;17.00;;;16.20;;
3036;SDS011;1528;52.550;13.408;2022-09-09T03:38:09;14.90;;;14.10;;
3036;SDS011;1528;52.550;13.408;2022-09-09T03:40:57;14.90;;;14.10;;
3036;SDS011;1528;52.550;13.408;2022-09-09T03:43:43;15.70;;;14.90;;
3036;SDS011;1528;52.550;13.408;2022-09-09T03:46:29;14.97;;;14.17;;
3036;SDS011;1528;52.550;13.408;2022-09-09T03:49:14;19.30;;;18.50;;
3036;SDS011;1528;52.550;13.408;2022-09-09T03:52:00;15.83;;;14.87;;
3036;SDS011;1528;52.550;13.408;2022-09-09T03:54:46;13.43;;;12.73;;
3036;SDS011;1528;52.550;13.408;2022-09-09T03:57:33;17.43;;;16.57;;
3036;SDS011;1528;52.550;13.408;2022-09-09T04:00:19;11.70;;;11.00;;
3036;SDS011;1528;52.550;13.408;2022-09-09T04:03:05;14.67;;;13.93;;
3036;SDS011;1528;52.550;13.408;2022-09-09T04:05:50;14.37;;;13.57;;
3036;SDS011;1528;52.550;13.408;2022-09-09T04:08:36;13.10;;;12.30;;
3036;SDS011;1528;52.550;13.408;2022-09-09T04:11:22;14.10;;;13.10;;
3036;SDS011;1528;52.550;13.408;2022-09-09T04:14:10;14.57;;;13.57;;
3036;SDS011;1528;52.550;13.408;2022-09-09T04:16:56;14.67;;;13.87;;
3036;SDS011;1528;52.550;13.408;2022-09-09T04:19:43;12.90;;;12.13;;
3036;SDS011;1528;52.550;13.408;2022-09-09T04:22:28;14.60;;;13.73;;
3036;SDS011;1528;52.550;13.408;2022-09-09T04:25:14;14.47;;;13.67;;
3036;SDS011;1528;52.550;13.408;2022-09-09T04:28:00;10.40;;;9.80;;
3036;SDS011;1528;52.550;13.408;2022-09-09T04:30:47;11.63;;;10.93;;
3036;SDS011;1528;52.550;13.408;2022-09-09T04:33:33;13.60;;;12.80;;
3036;SDS011;1528;52.550;13.408;2022-09-09T04:36:18;14.20;;;13.40;;
3036;SDS011;1528;52.550;13.408;2022-09-09T04:39:03;13.90;;;13.20;;
3036;SDS011;1528;52.550;13.408;2022-09-09T04:41:49;14.10;;;13.40;;
3036;SDS011;1528;52.550;13.408;2022-09-09T04:44:35;13.47;;;12.77;;
3036;SDS011;1528;52.550;13.408;2022-09-09T04:47:21;13.10;;;12.57;;
3036;SDS011;1528;52.550;13.408;2022-09-09T04:50:07;13.67;;;13.07;;
3036;SDS011;1528;52.550;13.408;2022-09-09T04:52:53;15.20;;;14.50;;
3036;SDS011;1528;52.550;13.408;2022-09-09T04:55:39;14.63;;;13.93;;
3036;SDS011;1528;52.550;13.408;2022-09-09T04:58:24;14.90;;;14.10;;
3036;SDS011;1528;52.550;13.408;2022-09-09T05:01:31;13.37;;;12.77;;
3036;SDS011;1528;52.550;13.408;2022-09-09T05:04:19;11.80;;;11.20;;
3036;SDS011;1528;52.550;13.408;2022-09-09T05:07:05;14.27;;;13.33;;
3036;SDS011;1528;52.550;13.408;2022-09-09T05:09:50;14.50;;;13.73;;
3036;SDS011;1528;52.550;13.408;2022-09-09T05:12:36;9.50;;;9.00;;
3036;SDS011;1528;52.550;13.408;2022-09-09T05:15:22;10.43;;;9.83;;
3036;SDS011;1528;52.550;13.408;2022-09-09T05:18:07;9.33;;;8.73;;
3036;SDS011;1528;52.550;13.408;2022-09-09T05:20:59;9.83;;;9.30;;
3036;SDS011;1528;52.550;13.408;2022-09-09T05:23:45;11.03;;;10.40;;
3036;SDS011;1528;52.550;13.408;2022-09-09T05:26:31;9.10;;;8.30;;
3036;SDS011;1528;52.550;13.408;2022-09-09T05:29:17;9.20;;;8.60;;
3036;SDS011;1528;52.550;13.408;2022-09-09T05:32:03;10.23;;;9.43;;
3036;SDS011;1528;52.550;13.408;2022-09-09T05:34:49;9.00;;;8.50;;
3036;SDS011;1528;52.550;13.408;2022-09-09T05:37:36;9.87;;;9.17;;
3036;SDS011;1528;52.550;13.408;2022-09-09T05:40:22;9.80;;;9.17;;
3036;SDS011;1528;52.550;13.408;2022-09-09T05:43:07;9.23;;;8.53;;
3036;SDS011;1528;52.550;13.408;2022-09-09T05:45:59;8.57;;;8.07;;
3036;SDS011;1528;52.550;13.408;2022-09-09T05:48:48;9.63;;;9.00;;
3036;SDS011;1528;52.550;13.408;2022-09-09T05:51:34;9.50;;;8.90;;
3036;SDS011;1528;52.550;13.408;2022-09-09T05:54:21;10.00;;;9.30;;
3036;SDS011;1528;52.550;13.408;2022-09-09T05:57:07;9.43;;;8.73;;
3036;SDS011;1528;52.550;13.408;2022-09-09T05:59:53;8.60;;;8.03;;
3036;SDS011;1528;52.550;13.408;2022-09-09T06:02:38;9.20;;;8.40;;
3036;SDS011;1528;52.550;13.408;2022-09-09T06:05:28;9.23;;;8.57;;
3036;SDS011;1528;52.550;13.408;2022-09-09T06:08:14;9.47;;;8.97;;
3036;SDS011;1528;52.550;13.408;2022-09-09T06:11:05;9.40;;;8.60;;
3036;SDS011;1528;52.550;13.408;2022-09-09T06:13:51;10.60;;;9.47;;
3036;SDS011;1528;52.550;13.408;2022-09-09T06:16:38;9.00;;;8.50;;
3036;SDS011;1528;52.550;13.408;2022-09-09T06:19:27;12.37;;;11.67;;
3036;SDS011;1528;52.550;13.408;2022-09-09T06:22:14;12.80;;;12.00;;
3036;SDS011;1528;52.550;13.408;2022-09-09T06:25:00;10.53;;;9.97;;
3036;SDS011;1528;52.550;13.408;2022-09-09T06:27:49;12.40;;;11.60;;
3036;SDS011;1528;52.550;13.408;2022-09-09T06:30:34;13.47;;;12.80;;
3036;SDS011;1528;52.550;13.408;2022-09-09T06:33:20;13.90;;;13.10;;
3036;SDS011;1528;52.550;13.408;2022-09-09T06:36:06;12.30;;;11.60;;
3036;SDS011;1528;52.550;13.408;2022-09-09T06:38:55;13.57;;;12.83;;
3036;SDS011;1528;52.550;13.408;2022-09-09T06:41:41;12.20;;;11.50;;
3036;SDS011;1528;52.550;13.408;2022-09-09T06:44:29;11.47;;;10.83;;
3036;SDS011;1528;52.550;13.408;2022-09-09T06:47:15;12.50;;;11.60;;
3036;SDS011;1528;52.550;13.408;2022-09-09T06:50:00;11.10;;;10.50;;
3036;SDS011;1528;52.550;13.408;2022-09-09T06:52:46;12.37;;;11.63;;
3036;SDS011;1528;52.550;13.408;2022-09-09T06:55:32;14.10;;;13.40;;
3036;SDS011;1528;52.550;13.408;2022-09-09T06:58:18;10.60;;;9.80;;
3036;SDS011;1528;52.550;13.408;2022-09-09T07:01:05;11.47;;;10.77;;
3036;SDS011;1528;52.550;13.408;2022-09-09T07:03:52;11.30;;;10.40;;
3036;SDS011;1528;52.550;13.408;2022-09-09T07:06:39;10.63;;;9.77;;
3036;SDS011;1528;52.550;13.408;2022-09-09T07:09:26;10.57;;;10.07;;
3036;SDS011;1528;52.550;13.408;2022-09-09T07:12:12;9.47;;;8.93;;
3036;SDS011;1528;52.550;13.408;2022-09-09T07:14:58;9.50;;;9.10;;
3036;SDS011;1528;52.550;13.408;2022-09-09T07:17:45;8.60;;;8.10;;
3036;SDS011;1528;52.550;13.408;2022-09-09T07:20:31;9.67;;;9.17;;
3036;SDS011;1528;52.550;13.408;2022-09-09T07:23:17;10.57;;;9.93;;
3036;SDS011;1528;52.550;13.408;2022-09-09T07:26:02;9.97;;;9.33;;
3036;SDS011;1528;52.550;13.408;2022-09-09T07:28:52;10.73;;;9.90;;
3036;SDS011;1528;52.550;13.408;2022-09-09T07:31:38;10.37;;;8.43;;
3036;SDS011;1528;52.550;13.408;2022-09-09T07:34:25;9.03;;;8.33;;
3036;SDS011;1528;52.550;13.408;2022-09-09T07:37:11;8.87;;;7.90;;
3036;SDS011;1528;52.550;13.408;2022-09-09T07:39:57;9.30;;;8.77;;
3036;SDS011;1528;52.550;13.408;2022-09-09T07:42:42;8.70;;;8.30;;
3036;SDS011;1528;52.550;13.408;2022-09-09T07:45:28;9.20;;;8.50;;
3036;SDS011;1528;52.550;13.408;2022-09-09T07:48:16;10.33;;;9.53;;
3036;SDS011;1528;52.550;13.408;2022-09-09T07:51:07;10.63;;;9.90;;
3036;SDS011;1528;52.550;13.408;2022-09-09T07:53:55;8.30;;;7.90;;
3036;SDS011;1528;52.550;13.408;2022-09-09T07:56:42;9.47;;;8.67;;
3036;SDS011;1528;52.550;13.408;2022-09-09T07:59:28;9.87;;;9.40;;
3036;SDS011;1528;52.550;13.408;2022-09-09T08:02:14;10.20;;;9.60;;
3036;SDS011;1528;52.550;13.408;2022-09-09T08:05:00;9.03;;;8.30;;
3036;SDS011;1528;52.550;13.408;2022-09-09T08:07:47;10.17;;;9.53;;
3036;SDS011;1528;52.550;13.408;2022-09-09T08:10:32;5.87;;;5.57;;
3036;SDS011;1528;52.550;13.408;2022-09-09T08:13:18;11.50;;;10.93;;
3036;SDS011;1528;52.550;13.408;2022-09-09T08:16:04;9.80;;;9.30;;
3036;SDS011;1528;52.550;13.408;2022-09-09T08:18:51;10.90;;;10.03;;
3036;SDS011;1528;52.550;13.408;2022-09-09T08:21:38;9.83;;;9.40;;
3036;SDS011;1528;52.550;13.408;2022-09-09T08:24:26;9.60;;;9.07;;
3036;SDS011;1528;52.550;13.408;2022-09-09T08:27:11;9.63;;;9.23;;
3036;SDS011;1528;52.550;13.408;2022-09-09T08:29:57;8.57;;;8.13;;
3036;SDS011;1528;52.550;13.408;2022-09-09T08:32:43;9.53;;;8.93;;
3036;SDS011;1528;52.550;13.408;2022-09-09T08:35:28;9.80;;;9.23;;
3036;SDS011;1528;52.550;13.408;2022-09-09T08:38:16;9.77;;;9.07;;
3036;SDS011;1528;52.550;13.408;2022-09-09T08:44:20;9.77;;;9.37;;
3036;SDS011;1528;52.550;13.408;2022-09-09T08:47:18;9.23;;;8.50;;
3036;SDS011;1528;52.550;13.408;2022-09-09T08:50:13;8.73;;;8.30;;
3036;SDS011;1528;52.550;13.408;2022-09-09T08:53:05;8.70;;;8.07;;
3036;SDS011;1528;52.550;13.408;2022-09-09T08:55:56;9.43;;;9.03;;
3036;SDS011;1528;52.550;13.408;2022-09-09T08:58:46;8.50;;;8.00;;
3036;SDS011;1528;52.550;13.408;2022-09-09T09:01:36;8.13;;;7.73;;
3036;SDS011;1528;52.550;13.408;2022-09-09T09:04:41;8.77;;;8.40;;
3036;SDS011;1528;52.550;13.408;2022-09-09T09:07:40;8.10;;;7.70;;
3036;SDS011;1528;52.550;13.408;2022-09-09T09:10:39;10.63;;;10.13;;
3036;SDS011;1528;52.550;13.408;2022-09-09T09:13:34;11.50;;;11.00;;
3036;SDS011;1528;52.550;13.408;2022-09-09T09:16:29;10.83;;;10.00;;
3036;SDS011;1528;52.550;13.408;2022-09-09T09:19:17;8.07;;;7.57;;
3036;SDS011;1528;52.550;13.408;2022-09-09T09:22:10;5.80;;;5.40;;
3036;SDS011;1528;52.550;13.408;2022-09-09T09:25:02;10.13;;;9.73;;
3036;SDS011;1528;52.550;13.408;2022-09-09T09:27:57;10.77;;;9.80;;
3036;SDS011;1528;52.550;13.408;2022-09-09T09:30:49;8.63;;;8.23;;
3036;SDS011;1528;52.550;13.408;2022-09-09T09:33:45;10.00;;;9.57;;
3036;SDS011;1528;52.550;13.408;2022-09-09T09:36:34;9.90;;;9.50;;
3036;SDS011;1528;52.550;13.408;2022-09-09T09:39:24;11.37;;;10.50;;
3036;SDS011;1528;52.550;13.408;2022-09-09T09:42:10;9.20;;;8.90;;
3036;SDS011;1528;52.550;13.408;2022-09-09T09:45:06;10.47;;;9.97;;
3036;SDS011;1528;52.550;13.408;2022-09-09T09:48:00;8.33;;;7.93;;
3036;SDS011;1528;52.550;13.408;2022-09-09T09:50:49;6.27;;;5.77;;
3036;SDS011;1528;52.550;13.408;2022-09-09T09:53:37;11.10;;;10.50;;
3036;SDS011;1528;52.550;13.408;2022-09-09T09:56:27;10.43;;;10.03;;
3036;SDS011;1528;52.550;13.408;2022-09-09T09:59:20;9.30;;;8.97;;
3036;SDS011;1528;52.550;13.408;2022-09-09T10:02:15;8.60;;;8.10;;
3036;SDS011;1528;52.550;13.408;2022-09-09T10:05:03;10.13;;;9.43;;
3036;SDS011;1528;52.550;13.408;2022-09-09T10:08:01;9.40;;;9.00;;
3036;SDS011;1528;52.550;13.408;2022-09-09T10:10:50;8.83;;;8.37;;
3036;SDS011;1528;52.550;13.408;2022-09-09T10:13:47;7.40;;;6.90;;
3036;SDS011;1528;52.550;13.408;2022-09-09T10:16:45;7.93;;;7.33;;
3036;SDS011;1528;52.550;13.408;2022-09-09T10:19:46;8.37;;;7.93;;
3036;SDS011;1528;52.550;13.408;2022-09-09T10:22:44;9.20;;;8.83;;
3036;SDS011;1528;52.550;13.408;2022-09-09T10:25:41;9.40;;;8.90;;
3036;SDS011;1528;52.550;13.408;2022-09-09T10:28:46;9.40;;;8.93;;
3036;SDS011;1528;52.550;13.408;2022-09-09T10:31:45;9.60;;;9.20;;
3036;SDS011;1528;52.550;13.408;2022-09-09T10:34:53;8.30;;;7.90;;
3036;SDS011;1528;52.550;13.408;2022-09-09T10:37:44;8.60;;;8.10;;
3036;SDS011;1528;52.550;13.408;2022-09-09T10:41:03;10.33;;;9.63;;
3036;SDS011;1528;52.550;13.408;2022-09-09T10:44:02;11.77;;;11.27;;
3036;SDS011;1528;52.550;13.408;2022-09-09T10:47:08;10.03;;;9.63;;
3036;SDS011;1528;52.550;13.408;2022-09-09T10:50:24;7.10;;;6.67;;
3036;SDS011;1528;52.550;13.408;2022-09-09T10:53:24;6.20;;;5.43;;
3036;SDS011;1528;52.550;13.408;2022-09-09T10:56:24;5.30;;;5.00;;
3036;SDS011;1528;52.550;13.408;2022-09-09T10:59:12;5.23;;;4.93;;
3036;SDS011;1528;52.550;13.408;2022-09-09T11:02:02;5.63;;;5.20;;
3036;SDS011;1528;52.550;13.408;2022-09-09T11:04:59;6.17;;;5.63;;
3036;SDS011;1528;52.550;13.408;2022-09-09T11:07:50;4.93;;;4.63;;
3036;SDS011;1528;52.550;13.408;2022-09-09T11:10:44;5.57;;;5.27;;
3036;SDS011;1528;52.550;13.408;2022-09-09T11:13:38;4.90;;;4.70;;
3036;SDS011;1528;52.550;13.408;2022-09-09T11:16:29;5.50;;;5.10;;
3036;SDS011;1528;52.550;13.408;2022-09-09T11:19:21;5.03;;;4.53;;
3036;SDS011;1528;52.550;13.408;2022-09-09T11:22:15;6.67;;;6.07;;
3036;SDS011;1528;52.550;13.408;2022-09-09T11:25:05;5.93;;;5.60;;
3036;SDS011;1528;52.550;13.408;2022-09-09T11:28:05;7.07;;;6.73;;
3036;SDS011;1528;52.550;13.408;2022-09-09T11:34:32;6.10;;;5.80;;
3036;SDS011;1528;52.550;13.408;2022-09-09T11:37:37;10.43;;;9.83;;
3036;SDS011;1528;52.550;13.408;2022-09-09T11:40:40;7.03;;;6.63;;
3036;SDS011;1528;52.550;13.408;2022-09-09T11:43:28;7.87;;;7.47;;
3036;SDS011;1528;52.550;13.408;2022-09-09T11:46:16;7.80;;;7.50;;
3036;SDS011;1528;52.550;13.408;2022-09-09T11:49:04;6.60;;;6.20;;
3036;SDS011;1528;52.550;13.408;2022-09-09T11:51:51;9.77;;;9.27;;
3036;SDS011;1528;52.550;13.408;2022-09-09T11:54:44;9.27;;;8.87;;
3036;SDS011;1528;52.550;13.408;2022-09-09T11:57:34;8.30;;;7.97;;
3036;SDS011;1528;52.550;13.408;2022-09-09T12:00:28;9.27;;;8.80;;
3036;SDS011;1528;52.550;13.408;2022-09-09T12:03:38;7.80;;;7.40;;
3036;SDS011;1528;52.550;13.408;2022-09-09T12:06:28;9.43;;;9.03;;
3036;SDS011;1528;52.550;13.408;2022-09-09T12:09:18;7.17;;;6.70;;
3036;SDS011;1528;52.550;13.408;2022-09-09T12:12:21;8.40;;;8.00;;
3036;SDS011;1528;52.550;13.408;2022-09-09T12:15:20;10.90;;;10.40;;
3036;SDS011;1528;52.550;13.408;2022-09-09T12:18:14;8.20;;;7.80;;
3036;SDS011;1528;52.550;13.408;2022-09-09T12:21:05;9.97;;;9.57;;
3036;SDS011;1528;52.550;13.408;2022-09-09T12:23:59;9.53;;;9.10;;
3036;SDS011;1528;52.550;13.408;2022-09-09T12:26:51;10.30;;;9.90;;
3036;SDS011;1528;52.550;13.408;2022-09-09T12:29:43;9.93;;;9.53;;
3036;SDS011;1528;52.550;13.408;2022-09-09T12:32:34;14.50;;;13.90;;
3036;SDS011;1528;52.550;13.408;2022-09-09T12:35:21;11.73;;;11.23;;
3036;SDS011;1528;52.550;13.408;2022-09-09T12:38:12;11.83;;;11.37;;
3036;SDS011;1528;52.550;13.408;2022-09-09T12:41:05;18.67;;;18.00;;
3036;SDS011;1528;52.550;13.408;2022-09-09T12:44:03;12.37;;;11.60;;
3036;SDS011;1528;52.550;13.408;2022-09-09T12:46:51;9.83;;;9.43;;
3036;SDS011;1528;52.550;13.408;2022-09-09T12:49:39;9.73;;;9.33;;
3036;SDS011;1528;52.550;13.408;2022-09-09T12:52:26;9.50;;;9.00;;
3036;SDS011;1528;52.550;13.408;2022-09-09T12:55:16;11.20;;;10.80;;
3036;SDS011;1528;52.550;13.408;2022-09-09T12:58:05;11.13;;;10.63;;
3036;SDS011;1528;52.550;13.408;2022-09-09T13:00:52;12.30;;;11.67;;
3036;SDS011;1528;52.550;13.408;2022-09-09T13:03:42;9.93;;;9.53;;
3036;SDS011;1528;52.550;13.408;2022-09-09T13:06:31;10.60;;;10.20;;
3036;SDS011;1528;52.550;13.408;2022-09-09T13:09:17;5.20;;;4.90;;
3036;SDS011;1528;52.550;13.408;2022-09-09T13:12:03;10.10;;;9.77;;
3036;SDS011;1528;52.550;13.408;2022-09-09T13:14:53;9.97;;;9.47;;
3036;SDS011;1528;52.550;13.408;2022-09-09T13:17:41;7.87;;;7.47;;
3036;SDS011;1528;52.550;13.408;2022-09-09T13:20:26;7.20;;;6.90;;
3036;SDS011;1528;52.550;13.408;2022-09-09T13:23:14;12.03;;;11.53;;
3036;SDS011;1528;52.550;13.408;2022-09-09T13:26:04;11.33;;;10.93;;
3036;SDS011;1528;52.550;13.408;2022-09-09T13:28:51;11.90;;;11.27;;
3036;SDS011;1528;52.550;13.408;2022-09-09T13:31:38;10.03;;;9.53;;
3036;SDS011;1528;52.550;13.408;2022-09-09T13:34:28;5.53;;;5.23;;
3036;SDS011;1528;52.550;13.408;2022-09-09T13:37:16;10.07;;;9.67;;
3036;SDS011;1528;52.550;13.408;2022-09-09T13:40:14;9.90;;;9.50;;
3036;SDS011;1528;52.550;13.408;2022-09-09T13:43:03;12.07;;;11.37;;
3036;SDS011;1528;52.550;13.408;2022-09-09T13:45:52;7.33;;;6.93;;
3036;SDS011;1528;52.550;13.408;2022-09-09T13:48:43;9.33;;;8.93;;
3036;SDS011;1528;52.550;13.408;2022-09-09T13:51:39;9.50;;;9.20;;
3036;SDS011;1528;52.550;13.408;2022-09-09T13:54:26;11.57;;;11.07;;
3036;SDS011;1528;52.550;13.408;2022-09-09T13:57:14;5.60;;;5.23;;
3036;SDS011;1528;52.550;13.408;2022-09-09T14:00:01;9.87;;;9.47;;
3036;SDS011;1528;52.550;13.408;2022-09-09T14:02:47;10.30;;;9.80;;
3036;SDS011;1528;52.550;13.408;2022-09-09T14:05:34;8.40;;;8.00;;
3036;SDS011;1528;52.550;13.408;2022-09-09T14:08:22;6.20;;;5.90;;
3036;SDS011;1528;52.550;13.408;2022-09-09T14:11:11;9.73;;;9.23;;
3036;SDS011;1528;52.550;13.408;2022-09-09T14:13:57;9.57;;;9.17;;
3036;SDS011;1528;52.550;13.408;2022-09-09T14:16:44;10.53;;;10.13;;
3036;SDS011;1528;52.550;13.408;2022-09-09T14:19:30;10.40;;;9.90;;
3036;SDS011;1528;52.550;13.408;2022-09-09T14:22:16;10.50;;;10.00;;
3036;SDS011;1528;52.550;13.408;2022-09-09T14:25:01;10.87;;;10.47;;
3036;SDS011;1528;52.550;13.408;2022-09-09T14:27:47;11.33;;;10.83;;
3036;SDS011;1528;52.550;13.408;2022-09-09T14:30:34;10.03;;;9.50;;
3036;SDS011;1528;52.550;13.408;2022-09-09T14:33:21;10.63;;;10.13;;
3036;SDS011;1528;52.550;13.408;2022-09-09T14:36:07;11.50;;;11.10;;
3036;SDS011;1528;52.550;13.408;2022-09-09T14:38:53;11.63;;;11.23;;
3036;SDS011;1528;52.550;13.408;2022-09-09T14:41:39;12.23;;;11.83;;
3036;SDS011;1528;52.550;13.408;2022-09-09T14:44:24;9.40;;;8.90;;
3036;SDS011;1528;52.550;13.408;2022-09-09T14:47:10;11.60;;;11.07;;
3036;SDS011;1528;52.550;13.408;2022-09-09T14:49:55;5.77;;;5.43;;
3036;SDS011;1528;52.550;13.408;2022-09-09T14:52:41;9.73;;;9.30;;
3036;SDS011;1528;52.550;13.408;2022-09-09T14:55:28;10.67;;;10.27;;
3036;SDS011;1528;52.550;13.408;2022-09-09T14:58:13;10.30;;;8.10;;
3036;SDS011;1528;52.550;13.408;2022-09-09T15:01:03;8.53;;;8.13;;
3036;SDS011;1528;52.550;13.408;2022-09-09T15:03:50;9.27;;;8.77;;
3036;SDS011;1528;52.550;13.408;2022-09-09T15:06:36;6.50;;;6.17;;
3036;SDS011;1528;52.550;13.408;2022-09-09T15:09:22;9.23;;;8.87;;
3036;SDS011;1528;52.550;13.408;2022-09-09T15:12:09;12.30;;;11.80;;
3036;SDS011;1528;52.550;13.408;2022-09-09T15:14:55;9.80;;;9.40;;
3036;SDS011;1528;52.550;13.408;2022-09-09T15:17:40;7.60;;;7.20;;
3036;SDS011;1528;52.550;13.408;2022-09-09T15:20:26;9.13;;;8.73;;
3036;SDS011;1528;52.550;13.408;2022-09-09T15:23:11;8.60;;;8.20;;
3036;SDS011;1528;52.550;13.408;2022-09-09T15:25:57;12.57;;;11.87;;
3036;SDS011;1528;52.550;13.408;2022-09-09T15:28:44;11.97;;;11.30;;
3036;SDS011;1528;52.550;13.408;2022-09-09T15:31:31;12.00;;;11.30;;
3036;SDS011;1528;52.550;13.408;2022-09-09T15:34:16;12.70;;;11.90;;
3036;SDS011;1528;52.550;13.408;2022-09-09T15:37:02;12.03;;;11.27;;
3036;SDS011;1528;52.550;13.408;2022-09-09T15:39:48;10.70;;;10.07;;
3036;SDS011;1528;52.550;13.408;2022-09-09T15:42:33;10.10;;;9.50;;
3036;SDS011;1528;52.550;13.408;2022-09-09T15:45:20;10.60;;;10.00;;
3036;SDS011;1528;52.550;13.408;2022-09-09T15:48:06;8.60;;;8.00;;
3036;SDS011;1528;52.550;13.408;2022-09-09T15:50:52;11.43;;;10.53;;
3036;SDS011;1528;52.550;13.408;2022-09-09T15:53:46;9.03;;;8.43;;
3036;SDS011;1528;52.550;13.408;2022-09-09T15:56:32;9.23;;;8.63;;
3036;SDS011;1528;52.550;13.408;2022-09-09T15:59:18;8.23;;;7.73;;
3036;SDS011;1528;52.550;13.408;2022-09-09T16:02:05;7.80;;;7.30;;
3036;SDS011;1528;52.550;13.408;2022-09-09T16:04:50;8.60;;;7.83;;
3036;SDS011;1528;52.550;13.408;2022-09-09T16:07:36;7.27;;;6.87;;
3036;SDS011;1528;52.550;13.408;2022-09-09T16:10:21;7.80;;;7.30;;
3036;SDS011;1528;52.550;13.408;2022-09-09T16:13:07;6.60;;;6.20;;
3036;SDS011;1528;52.550;13.408;2022-09-09T16:15:53;8.43;;;7.73;;
3036;SDS011;1528;52.550;13.408;2022-09-09T16:18:40;10.57;;;9.73;;
3036;SDS011;1528;52.550;13.408;2022-09-09T16:21:29;8.83;;;8.23;;
3036;SDS011;1528;52.550;13.408;2022-09-09T16:24:16;9.70;;;9.00;;
3036;SDS011;1528;52.550;13.408;2022-09-09T16:27:03;9.97;;;9.27;;
3036;SDS011;1528;52.550;13.408;2022-09-09T16:29:48;11.27;;;10.33;;
3036;SDS011;1528;52.550;13.408;2022-09-09T16:32:35;10.37;;;9.57;;
3036;SDS011;1528;52.550;13.408;2022-09-09T16:35:22;11.33;;;10.47;;
3036;SDS011;1528;52.550;13.408;2022-09-09T16:38:07;9.27;;;8.67;;
3036;SDS011;1528;52.550;13.408;2022-09-09T16:40:58;9.70;;;8.30;;
3036;SDS011;1528;52.550;13.408;2022-09-09T16:43:44;7.30;;;6.57;;
3036;SDS011;1528;52.550;13.408;2022-09-09T16:46:31;7.47;;;6.97;;
3036;SDS011;1528;52.550;13.408;2022-09-09T16:49:19;8.83;;;8.23;;
3036;SDS011;1528;52.550;13.408;2022-09-09T16:52:06;8.10;;;7.40;;
3036;SDS011;1528;52.550;13.408;2022-09-09T16:54:51;7.87;;;7.27;;
3036;SDS011;1528;52.550;13.408;2022-09-09T16:57:37;8.50;;;7.47;;
3036;SDS011;1528;52.550;13.408;2022-09-09T17:00:22;7.73;;;7.20;;
3036;SDS011;1528;52.550;13.408;2022-09-09T17:03:10;7.53;;;6.63;;
3036;SDS011;1528;52.550;13.408;2022-09-09T17:05:57;7.67;;;7.10;;
3036;SDS011;1528;52.550;13.408;2022-09-09T17:08:46;7.63;;;7.13;;
3036;SDS011;1528;52.550;13.408;2022-09-09T17:11:32;7.50;;;6.93;;